Time;durP1;ratioP1;P1;durP2;ratioP2;P2;SDS_P1;SDS_P2;PMS_P1;PMS_P2;Temp;Humidity;BMP_temperature;BMP_pressure;BME280_temperature;BME280_humidity;BME280_pressure;Samples;Min_cycle;Max_cycle;Signal;HPM_P1;HPM_P2
2022/09/10 00:01:05;;;;;;;6.40;1.53;;;;;;;15.20;100.00;155265.19;5073486;28;20449;-77
2022/09/10 00:03:31;;;;;;;1.50;1.10;;;;;;;15.17;100.00;155258.72;5072688;28;20467;-77
2022/09/10 00:06:03;;;;;;;2.00;1.30;;;;;;;15.14;100.00;155249.66;5091089;28;20437;-76
2022/09/10 00:08:33;;;;;;;2.83;1.30;;;;;;;15.16;100.00;155254.81;5111472;28;20773;-77
2022/09/10 00:11:04;;;;;;;1.50;1.10;;;;;;;15.13;100.00;155248.34;5111283;28;20440;-76
2022/09/10 00:13:30;;;;;;;2.10;1.10;;;;;;;15.14;100.00;155249.66;5092924;28;20555;-77
2022/09/10 00:15:58;;;;;;;1.97;1.07;;;;;;;15.12;100.00;155244.41;5111674;28;20470;-76
2022/09/10 00:18:25;;;;;;;3.20;1.20;;;;;;;15.12;100.00;155244.41;5111879;28;20531;-76
2022/09/10 00:20:53;;;;;;;1.60;0.90;;;;;;;15.05;100.00;155226.22;5076348;28;20444;-77
2022/09/10 00:23:24;;;;;;;2.20;1.10;;;;;;;15.02;100.00;155219.75;5091826;28;20815;-76
2022/09/10 00:25:52;;;;;;;1.60;1.20;;;;;;;14.96;100.00;155202.81;5111184;28;20432;-77
2022/09/10 00:28:20;;;;;;;3.13;0.93;;;;;;;14.93;100.00;155195.06;5092821;28;20477;-77
2022/09/10 00:30:49;;;;;;;2.70;1.30;;;;;;;14.90;100.00;155187.28;5092658;28;20424;-76
2022/09/10 00:33:18;;;;;;;1.70;0.90;;;;;;;14.89;100.00;155184.66;5095699;28;20440;-76
2022/09/10 00:35:45;;;;;;;1.40;1.00;;;;;;;14.84;100.00;155172.97;5096839;28;20517;-76
2022/09/10 00:38:14;;;;;;;3.53;1.20;;;;;;;14.82;100.00;155167.78;5079301;28;20803;-76
2022/09/10 00:40:42;;;;;;;2.40;1.60;;;;;;;14.83;100.00;155169.06;5081271;28;20444;-77
2022/09/10 00:43:11;;;;;;;1.70;1.30;;;;;;;14.80;100.00;155161.31;5096558;28;20431;-76
2022/09/10 00:45:38;;;;;;;1.63;1.10;;;;;;;14.80;100.00;155161.31;5082769;27;20475;-76
2022/09/10 00:48:07;;;;;;;2.57;1.10;;;;;;;14.81;100.00;155163.88;5109639;28;20456;-76
2022/09/10 00:50:36;;;;;;;1.50;1.10;;;;;;;14.78;100.00;155157.38;5079780;28;20543;-77
2022/09/10 00:53:05;;;;;;;1.90;1.00;;;;;;;14.77;100.00;155153.50;5079432;28;20466;-76
2022/09/10 00:55:33;;;;;;;3.03;2.10;;;;;;;14.78;100.00;155157.38;5079341;28;20473;-77
2022/09/10 00:58:05;;;;;;;1.70;0.90;;;;;;;14.77;100.00;155153.50;5095495;28;20877;-77
2022/09/10 01:00:32;;;;;;;1.30;1.00;;;;;;;14.81;100.00;155165.19;5130085;27;20456;-77
2022/09/10 01:02:59;;;;;;;1.57;1.20;;;;;;;14.81;100.00;155165.19;5095984;28;20966;-76
2022/09/10 01:05:26;;;;;;;1.83;1.10;;;;;;;14.78;100.00;155157.38;5114594;28;20436;-76
2022/09/10 01:07:55;;;;;;;3.73;1.07;;;;;;;14.75;100.00;155149.56;5071158;28;20799;-76
2022/09/10 01:10:27;;;;;;;2.73;1.60;;;;;;;14.77;100.00;155154.81;5075329;28;20460;-76
2022/09/10 01:13:21;;;;;;;3.10;1.40;;;;;;;14.79;100.00;155158.69;5058967;28;20478;-76
2022/09/10 01:15:54;;;;;;;3.10;1.50;;;;;;;14.77;100.00;155153.50;5076224;28;20492;-77
2022/09/10 01:18:30;;;;;;;4.27;1.40;;;;;;;14.78;100.00;155156.06;5092877;28;20425;-76
2022/09/10 01:21:10;;;;;;;6.50;1.70;;;;;;;14.80;100.00;155161.31;5109538;28;20547;-76
2022/09/10 01:24:11;;;;;;;2.93;1.70;;;;;;;14.79;100.00;155158.69;5076013;28;20429;-77
2022/09/10 01:27:09;;;;;;;2.17;1.90;;;;;;;14.76;100.00;155150.88;5059025;28;20473;-76
2022/09/10 01:29:45;;;;;;;2.87;1.70;;;;;;;14.74;100.00;155145.69;5075216;28;20479;-77
2022/09/10 01:32:14;;;;;;;1.97;1.50;;;;;;;14.73;100.00;155143.09;5110232;27;20505;-75
2022/09/10 01:34:49;;;;;;;2.70;1.53;;;;;;;14.74;100.00;155147.00;5108550;28;20437;-75
2022/09/10 01:37:21;;;;;;;2.60;1.30;;;;;;;14.77;100.00;155153.50;5075617;28;20447;-75
2022/09/10 01:39:49;;;;;;;2.73;1.43;;;;;;;14.78;100.00;155156.06;5061946;28;20444;-75
2022/09/10 01:42:16;;;;;;;2.20;1.50;;;;;;;14.77;100.00;155154.81;5061922;28;20536;-75
2022/09/10 01:44:47;;;;;;;2.30;1.27;;;;;;;14.76;100.00;155150.88;5108855;28;20802;-75
2022/09/10 01:47:27;;;;;;;3.30;1.60;;;;;;;14.76;100.00;155150.88;5075173;28;20486;-75
2022/09/10 01:50:12;;;;;;;1.60;1.40;;;;;;;14.73;100.00;155143.09;5075337;28;20455;-75
2022/09/10 01:52:46;;;;;;;2.00;1.37;;;;;;;14.73;100.00;155143.09;5075179;28;20478;-75
2022/09/10 01:55:28;;;;;;;1.77;1.10;;;;;;;14.71;100.00;155137.91;5109062;28;20844;-77
2022/09/10 01:57:59;;;;;;;3.03;1.60;;;;;;;14.70;100.00;155136.59;5075406;28;20486;-75
2022/09/10 02:00:38;;;;;;;2.10;1.83;;;;;;;14.73;100.00;155143.09;5091395;28;20501;-74
2022/09/10 02:03:07;;;;;;;3.83;1.53;;;;;;;14.65;100.00;155123.59;5108629;28;20814;-77
2022/09/10 02:05:37;;;;;;;2.20;1.10;;;;;;;14.63;100.00;155119.72;5091977;28;20509;-77
2022/09/10 02:08:10;;;;;;;2.00;1.10;;;;;;;14.62;100.00;155117.09;5093300;28;20924;-77
2022/09/10 02:10:49;;;;;;;1.47;1.10;;;;;;;14.61;100.00;155114.50;5075967;28;20911;-77
2022/09/10 02:13:16;;;;;;;1.27;1.03;;;;;;;14.62;100.00;155117.09;5074546;28;20480;-77
2022/09/10 02:15:58;;;;;;;1.43;1.20;;;;;;;14.62;100.00;155115.81;5108353;28;20952;-77
2022/09/10 02:18:32;;;;;;;2.33;1.20;;;;;;;14.60;100.00;155110.63;5091636;28;20799;-76
2022/09/10 02:21:01;;;;;;;3.97;1.50;;;;;;;14.61;100.00;155113.25;5091384;28;20441;-76
2022/09/10 02:23:31;;;;;;;4.53;1.40;;;;;;;14.58;100.00;155105.44;5082890;28;20441;-76
2022/09/10 02:25:57;;;;;;;1.67;1.10;;;;;;;14.55;100.00;155098.94;5074667;28;20448;-76
2022/09/10 02:28:29;;;;;;;2.53;1.10;;;;;;;14.57;100.00;155104.13;5108856;28;20476;-76
2022/09/10 02:30:57;;;;;;;4.23;1.10;;;;;;;14.59;100.00;155109.31;5057445;28;20476;-76
2022/09/10 02:33:23;;;;;;;1.47;1.10;;;;;;;14.61;100.00;155114.50;5057632;28;20528;-76
2022/09/10 02:35:52;;;;;;;2.60;1.50;;;;;;;14.54;100.00;155096.31;5092527;28;20887;-76
2022/09/10 02:38:20;;;;;;;1.60;1.10;;;;;;;14.61;100.00;155114.50;5091329;28;20433;-77
2022/09/10 02:40:47;;;;;;;4.17;3.77;;;;;;;14.60;100.00;155111.94;5071623;28;20449;-76
2022/09/10 02:43:15;;;;;;;3.70;1.10;;;;;;;14.58;100.00;155106.75;5107647;28;20441;-76
2022/09/10 02:45:41;;;;;;;1.57;1.10;;;;;;;14.58;100.00;155105.44;5091914;28;20477;-76
2022/09/10 02:48:09;;;;;;;1.73;0.90;;;;;;;14.56;100.00;155101.50;5087293;28;20463;-76
2022/09/10 02:50:36;;;;;;;1.63;1.00;;;;;;;14.58;100.00;155105.44;5093886;28;20436;-76
2022/09/10 02:53:04;;;;;;;2.60;1.27;;;;;;;14.58;100.00;155105.44;5077221;28;20811;-76
2022/09/10 02:55:31;;;;;;;2.03;1.40;;;;;;;14.58;100.00;155106.75;5112316;28;20633;-76
2022/09/10 02:57:58;;;;;;;1.43;1.10;;;;;;;14.60;100.00;155111.94;5076101;28;20440;-76
2022/09/10 03:00:25;;;;;;;1.87;0.90;;;;;;;14.59;100.00;155109.31;5093965;28;20527;-76
2022/09/10 03:02:51;;;;;;;2.20;1.20;;;;;;;14.56;100.00;155101.50;5093629;28;20448;-76
2022/09/10 03:05:19;;;;;;;2.23;1.20;;;;;;;14.58;100.00;155105.44;5090378;28;20524;-76
2022/09/10 03:07:46;;;;;;;1.40;1.00;;;;;;;14.54;100.00;155096.31;5076086;28;20497;-76
2022/09/10 03:10:13;;;;;;;1.67;1.20;;;;;;;14.52;100.00;155091.16;5075473;28;20709;-77
2022/09/10 03:12:40;;;;;;;1.70;1.40;;;;;;;14.49;100.00;155082.03;5076547;28;20926;-76
2022/09/10 03:15:08;;;;;;;1.97;1.23;;;;;;;14.52;100.00;155091.16;5092884;28;20447;-76
2022/09/10 03:17:35;;;;;;;1.67;1.20;;;;;;;14.52;100.00;155091.16;5093559;28;20804;-76
2022/09/10 03:20:04;;;;;;;2.80;1.50;;;;;;;14.49;100.00;155082.03;5076592;28;20444;-76
2022/09/10 03:22:32;;;;;;;2.47;1.00;;;;;;;14.49;100.00;155082.03;5076710;28;20523;-76
2022/09/10 03:24:58;;;;;;;2.20;1.50;;;;;;;14.49;100.00;155083.34;5093736;28;20837;-75
2022/09/10 03:27:25;;;;;;;1.70;1.30;;;;;;;14.47;100.00;155078.16;5093848;28;20544;-76
2022/09/10 03:29:53;;;;;;;2.90;1.50;;;;;;;14.45;100.00;155071.69;5093295;28;20451;-76
2022/09/10 03:32:20;;;;;;;1.57;1.40;;;;;;;14.45;100.00;155072.97;5092558;28;20509;-76
2022/09/10 03:34:47;;;;;;;3.47;1.73;;;;;;;14.46;100.00;155075.53;5093520;28;20459;-77
2022/09/10 03:37:16;;;;;;;1.97;1.10;;;;;;;14.45;100.00;155071.69;5076725;28;20474;-76
2022/09/10 03:39:45;;;;;;;3.83;1.27;;;;;;;14.45;100.00;155072.97;5088746;28;20448;-76
2022/09/10 03:42:11;;;;;;;1.27;1.10;;;;;;;14.44;100.00;155069.06;5093701;28;20447;-77
2022/09/10 03:44:38;;;;;;;3.33;1.20;;;;;;;14.44;100.00;155070.38;5079487;28;20977;-76
2022/09/10 03:47:06;;;;;;;3.10;1.30;;;;;;;14.44;100.00;155070.38;5075628;28;20876;-76
2022/09/10 03:49:32;;;;;;;2.60;1.50;;;;;;;14.43;100.00;155067.75;5056338;28;20540;-76
2022/09/10 03:51:59;;;;;;;5.43;1.67;;;;;;;14.40;100.00;155059.94;5056324;28;20433;-76
2022/09/10 03:54:26;;;;;;;2.30;1.20;;;;;;;14.42;100.00;155065.19;5072870;28;20958;-76
2022/09/10 03:56:54;;;;;;;2.60;1.40;;;;;;;14.40;100.00;155059.94;5075872;28;20491;-76
2022/09/10 03:59:21;;;;;;;2.07;1.43;;;;;;;14.39;100.00;155057.38;5093243;28;20448;-76
2022/09/10 04:01:49;;;;;;;1.50;1.10;;;;;;;14.37;100.00;155052.19;5076024;28;20451;-76
2022/09/10 04:04:16;;;;;;;1.70;1.43;;;;;;;14.34;100.00;155044.41;5075705;28;20842;-76
2022/09/10 04:06:44;;;;;;;4.00;1.37;;;;;;;14.39;100.00;155057.38;5094427;28;20440;-76
2022/09/10 04:09:11;;;;;;;2.37;1.33;;;;;;;14.39;100.00;155057.38;5080581;28;20467;-76
2022/09/10 04:11:38;;;;;;;2.17;1.70;;;;;;;14.41;100.00;155061.25;5115149;28;20436;-76
2022/09/10 04:14:06;;;;;;;3.23;1.60;;;;;;;14.34;100.00;155044.41;5096820;28;20437;-76
2022/09/10 04:16:36;;;;;;;1.63;1.10;;;;;;;14.36;100.00;155049.59;5097186;28;20444;-76
2022/09/10 04:19:05;;;;;;;2.40;1.30;;;;;;;14.36;100.00;155049.59;5089202;27;20457;-76
2022/09/10 04:21:31;;;;;;;1.70;1.37;;;;;;;14.36;100.00;155048.28;5102228;28;20480;-76
2022/09/10 04:23:59;;;;;;;1.60;1.23;;;;;;;14.34;100.00;155043.09;5110114;28;20457;-76
2022/09/10 04:26:26;;;;;;;1.70;1.13;;;;;;;14.34;100.00;155044.41;5101192;28;20444;-76
2022/09/10 04:28:53;;;;;;;1.67;1.23;;;;;;;14.30;100.00;155033.94;5097118;28;20540;-76
2022/09/10 04:31:22;;;;;;;1.73;1.20;;;;;;;14.29;100.00;155030.06;5096810;28;20440;-76
2022/09/10 04:33:51;;;;;;;2.63;1.10;;;;;;;14.30;100.00;155032.63;5130244;27;20466;-76
2022/09/10 04:36:21;;;;;;;1.83;1.17;;;;;;;14.25;100.00;155019.66;5099633;27;20450;-76
2022/09/10 04:38:48;;;;;;;2.13;1.13;;;;;;;14.24;100.00;155018.38;5104383;28;20471;-76
2022/09/10 04:41:18;;;;;;;2.70;1.43;;;;;;;14.25;100.00;155020.94;5059667;28;20544;-74
2022/09/10 04:43:45;;;;;;;1.83;1.10;;;;;;;14.22;100.00;155013.16;5091618;28;20441;-74
2022/09/10 04:46:12;;;;;;;1.30;1.10;;;;;;;14.22;100.00;155013.16;5092193;27;20474;-74
2022/09/10 04:48:43;;;;;;;2.30;1.30;;;;;;;14.24;100.00;155018.38;5116903;27;20475;-74
2022/09/10 04:51:12;;;;;;;1.70;1.20;;;;;;;14.26;100.00;155023.56;5117049;27;20457;-74
2022/09/10 04:53:42;;;;;;;1.70;1.10;;;;;;;14.24;100.00;155018.38;5135035;27;20435;-74
2022/09/10 04:56:09;;;;;;;2.67;1.20;;;;;;;14.20;100.00;155006.66;5114323;27;20500;-75
2022/09/10 04:58:38;;;;;;;2.10;1.20;;;;;;;14.19;100.00;155004.09;5102329;28;20448;-74
2022/09/10 05:01:05;;;;;;;1.73;1.40;;;;;;;14.17;100.00;155000.19;5094669;28;20444;-74
2022/09/10 05:03:32;;;;;;;3.60;1.00;;;;;;;14.19;100.00;155005.34;5094177;28;20432;-74
2022/09/10 05:06:00;;;;;;;2.10;1.40;;;;;;;14.21;100.00;155010.59;5097134;28;20802;-74
2022/09/10 05:08:27;;;;;;;1.83;1.27;;;;;;;14.24;100.00;155018.38;5077238;28;20470;-76
2022/09/10 05:10:57;;;;;;;1.47;1.10;;;;;;;14.23;100.00;155015.78;5078317;28;20448;-77
2022/09/10 05:13:24;;;;;;;1.90;1.10;;;;;;;14.23;100.00;155014.47;5095419;28;20505;-74
2022/09/10 05:15:50;;;;;;;1.43;1.10;;;;;;;14.24;100.00;155018.38;5089228;27;20442;-74
2022/09/10 05:18:17;;;;;;;1.63;0.80;;;;;;;14.22;100.00;155013.16;5097468;28;20436;-74
2022/09/10 05:20:46;;;;;;;1.30;0.83;;;;;;;14.24;100.00;155018.38;5114505;28;20428;-74
2022/09/10 05:23:15;;;;;;;3.30;1.10;;;;;;;14.27;100.00;155024.88;5080872;27;20448;-75
2022/09/10 05:25:43;;;;;;;2.70;1.10;;;;;;;14.28;100.00;155028.75;5098072;27;20525;-74
2022/09/10 05:28:10;;;;;;;3.30;1.03;;;;;;;14.29;100.00;155031.38;5116537;27;21170;-76
2022/09/10 05:30:37;;;;;;;3.00;1.10;;;;;;;14.29;100.00;155031.38;5072474;28;20539;-75
2022/09/10 05:33:04;;;;;;;2.17;1.13;;;;;;;14.26;100.00;155023.56;5075269;28;20421;-74
2022/09/10 05:35:33;;;;;;;1.50;1.00;;;;;;;14.30;100.00;155033.94;5104690;28;20802;-74
2022/09/10 05:38:00;;;;;;;1.43;1.00;;;;;;;14.29;100.00;155031.38;5059000;28;20425;-75
2022/09/10 05:40:30;;;;;;;2.07;1.23;;;;;;;14.32;100.00;155039.16;5092370;28;20451;-74
2022/09/10 05:42:57;;;;;;;1.70;1.03;;;;;;;14.32;100.00;155039.16;5073373;27;20443;-74
2022/09/10 05:45:24;;;;;;;1.50;1.20;;;;;;;14.31;100.00;155036.59;5112970;28;20962;-75
2022/09/10 05:47:51;;;;;;;2.50;1.23;;;;;;;14.33;100.00;155041.78;5082562;28;20441;-74
2022/09/10 05:50:21;;;;;;;1.53;0.90;;;;;;;14.31;100.00;155035.25;5105732;28;20512;-74
2022/09/10 05:52:49;;;;;;;2.30;0.93;;;;;;;14.32;100.00;155037.91;5105191;28;20448;-74
2022/09/10 05:55:17;;;;;;;1.20;0.90;;;;;;;14.32;100.00;155039.16;5078744;28;20950;-74
2022/09/10 05:57:45;;;;;;;1.90;1.60;;;;;;;14.35;100.00;155045.72;5109024;28;20440;-75
2022/09/10 06:00:14;;;;;;;2.23;1.07;;;;;;;14.33;100.00;155041.78;5075041;28;20445;-85
2022/09/10 06:02:44;;;;;;;3.60;1.00;;;;;;;14.35;100.00;155046.97;5087442;28;20451;-85
2022/09/10 06:05:24;;;;;;;1.90;1.00;;;;;;;14.37;100.00;155050.88;5084223;28;20492;-85
2022/09/10 06:07:51;;;;;;;1.43;1.03;;;;;;;14.39;100.00;155057.38;5073243;28;20441;-85
2022/09/10 06:10:18;;;;;;;4.07;1.30;;;;;;;14.38;100.00;155053.47;5090818;28;20445;-85
2022/09/10 06:12:48;;;;;;;3.33;1.03;;;;;;;14.42;100.00;155063.88;5097672;28;20453;-85
2022/09/10 06:15:15;;;;;;;2.30;1.07;;;;;;;14.40;100.00;155058.69;5071373;28;20437;-85
2022/09/10 06:17:43;;;;;;;2.93;0.90;;;;;;;14.41;100.00;155062.56;5087306;28;20435;-85
2022/09/10 06:20:11;;;;;;;1.93;1.40;;;;;;;14.41;100.00;155061.25;5071590;28;20437;-84
2022/09/10 06:22:39;;;;;;;1.30;1.00;;;;;;;14.42;100.00;155065.19;5092616;28;20444;-85
2022/09/10 06:25:07;;;;;;;1.00;0.80;;;;;;;14.39;100.00;155057.38;5093530;28;20448;-85
2022/09/10 06:27:35;;;;;;;1.57;1.07;;;;;;;14.44;100.00;155070.38;5111398;28;21121;-84
2022/09/10 06:30:06;;;;;;;2.03;1.10;;;;;;;14.42;100.00;155065.19;5079080;28;20464;-85
2022/09/10 06:32:34;;;;;;;1.87;1.00;;;;;;;14.37;100.00;155052.19;5055883;28;20445;-85
2022/09/10 06:35:02;;;;;;;1.70;0.87;;;;;;;14.42;100.00;155065.19;5086342;28;20438;-85
2022/09/10 06:37:34;;;;;;;1.80;1.20;;;;;;;14.48;100.00;155079.47;5059400;28;20804;-85
2022/09/10 06:40:04;;;;;;;1.57;1.07;;;;;;;14.51;100.00;155087.22;5066284;28;20460;-85
2022/09/10 06:42:32;;;;;;;1.80;0.90;;;;;;;14.50;100.00;155085.97;5053674;28;20529;-84
2022/09/10 06:45:15;;;;;;;2.53;1.20;;;;;;;14.56;100.00;155101.50;5104950;28;20527;-84
2022/09/10 06:48:00;;;;;;;3.20;1.33;;;;;;;14.59;100.00;155109.31;5075369;28;20921;-84
2022/09/10 06:50:35;;;;;;;1.50;1.07;;;;;;;14.61;100.00;155114.50;5099191;28;20469;-85
2022/09/10 06:53:02;;;;;;;1.17;0.90;;;;;;;14.69;100.00;155132.72;5088065;28;20442;-85
2022/09/10 06:55:29;;;;;;;1.60;1.20;;;;;;;14.66;100.00;155124.91;5118220;27;20499;-85
2022/09/10 06:57:59;;;;;;;2.10;1.30;;;;;;;14.68;100.00;155131.41;5104208;28;20884;-84
2022/09/10 07:00:31;;;;;;;1.20;0.77;;;;;;;14.72;100.00;155140.50;5094143;28;20447;-84
2022/09/10 07:02:59;;;;;;;1.40;0.90;;;;;;;14.78;100.00;155157.38;5111617;28;20424;-84
2022/09/10 07:05:28;;;;;;;2.20;0.90;;;;;;;14.79;100.00;155158.69;5108738;28;20448;-84
2022/09/10 07:07:55;;;;;;;2.53;1.37;;;;;;;14.83;100.00;155169.06;5060370;28;20454;-84
2022/09/10 07:10:22;;;;;;;1.30;0.90;;;;;;;14.90;100.00;155187.28;5052090;28;20469;-84
2022/09/10 07:12:49;;;;;;;2.13;0.93;;;;;;;14.91;100.00;155189.84;5065333;28;20975;-83
2022/09/10 07:15:16;;;;;;;4.47;1.27;;;;;;;14.94;100.00;155197.66;5103508;28;20933;-84
2022/09/10 07:17:45;;;;;;;1.20;0.90;;;;;;;14.95;100.00;155200.25;5089307;28;20449;-84
2022/09/10 07:20:13;;;;;;;1.87;1.17;;;;;;;15.03;100.00;155221.03;5090884;28;20559;-84
2022/09/10 07:22:44;;;;;;;1.10;0.90;;;;;;;15.10;100.00;155239.22;5072973;28;20437;-84
2022/09/10 07:25:13;;;;;;;1.33;0.90;;;;;;;15.11;100.00;155241.84;5073526;28;20552;-84
2022/09/10 07:27:52;;;;;;;1.63;1.10;;;;;;;15.19;100.00;155262.63;5089344;28;20448;-84
2022/09/10 07:30:21;;;;;;;4.50;1.57;;;;;;;15.26;100.00;155280.81;5085989;28;20508;-84
2022/09/10 07:32:49;;;;;;;2.83;1.10;;;;;;;15.29;100.00;155287.31;5110121;28;20966;-84
2022/09/10 07:35:20;;;;;;;1.70;1.13;;;;;;;15.26;100.00;155280.81;5092286;28;20564;-84
2022/09/10 07:37:46;;;;;;;1.57;1.20;;;;;;;15.31;100.00;155292.50;5054011;28;20449;-84
2022/09/10 07:40:14;;;;;;;2.13;1.20;;;;;;;15.35;100.00;155302.91;5086691;28;20449;-84
2022/09/10 07:42:43;;;;;;;1.60;1.10;;;;;;;15.46;100.00;155331.56;5069693;28;20434;-83
2022/09/10 07:45:12;;;;;;;1.27;0.80;;;;;;;15.57;100.00;155361.44;5070423;28;20474;-83
2022/09/10 07:47:39;;;;;;;2.50;1.03;;;;;;;15.71;100.00;155396.53;5124293;28;20444;-84
2022/09/10 07:50:09;;;;;;;3.77;1.00;;;;;;;15.74;100.00;155404.34;5108788;28;20479;-84
2022/09/10 07:52:36;;;;;;;1.60;0.93;;;;;;;15.84;100.00;155431.63;5110298;28;20488;-83
2022/09/10 07:55:04;;;;;;;1.50;0.90;;;;;;;15.88;100.00;155440.75;5110598;28;20455;-84
2022/09/10 07:57:33;;;;;;;2.43;0.80;;;;;;;15.89;100.00;155443.31;5110576;28;20436;-84
2022/09/10 08:00:00;;;;;;;1.60;0.90;;;;;;;15.89;100.00;155442.00;5081603;28;20438;-84
2022/09/10 08:02:42;;;;;;;2.17;1.10;;;;;;;15.95;100.00;155458.94;5105236;28;20430;-84
2022/09/10 08:05:12;;;;;;;1.20;0.90;;;;;;;15.96;100.00;155460.25;5086674;28;20944;-75
2022/09/10 08:07:40;;;;;;;1.30;1.10;;;;;;;16.04;100.00;155482.38;5056978;28;20453;-75
2022/09/10 08:10:09;;;;;;;1.57;0.93;;;;;;;16.13;100.00;155505.75;5086141;28;20476;-75
2022/09/10 08:12:36;;;;;;;2.40;1.00;;;;;;;16.22;100.00;155529.16;5071995;28;20476;-75
2022/09/10 08:15:04;;;;;;;2.03;1.10;;;;;;;16.26;100.00;155538.25;5087894;28;20541;-75
2022/09/10 08:17:31;;;;;;;2.60;0.97;;;;;;;16.27;100.00;155540.84;5106819;28;20788;-75
2022/09/10 08:19:59;;;;;;;3.43;1.30;;;;;;;16.33;100.00;155556.47;5087936;28;20809;-75
2022/09/10 08:22:27;;;;;;;1.87;0.87;;;;;;;16.38;100.00;155569.47;5109800;28;20437;-77
2022/09/10 08:24:56;;;;;;;5.13;1.07;;;;;;;16.42;100.00;155581.16;5068707;28;20442;-83
2022/09/10 08:27:28;;;;;;;3.37;1.03;;;;;;;16.55;100.00;155612.47;5072143;28;20442;-84
2022/09/10 08:29:56;;;;;;;3.23;1.20;;;;;;;16.64;100.00;155637.16;5050267;28;20486;-85
2022/09/10 08:32:23;;;;;;;1.10;0.80;;;;;;;16.65;100.00;155638.47;5068138;28;20438;-75
2022/09/10 08:34:52;;;;;;;1.40;0.80;;;;;;;16.75;100.00;155664.47;5053053;28;20490;-76
2022/09/10 08:37:19;;;;;;;1.13;0.80;;;;;;;16.87;100.00;155697.00;5078500;28;20434;-76
2022/09/10 08:39:48;;;;;;;1.87;1.20;;;;;;;16.90;100.00;155703.50;5101762;28;20450;-76
2022/09/10 08:42:20;;;;;;;1.67;0.60;;;;;;;16.91;100.00;155707.44;5088348;28;20440;-76
2022/09/10 08:44:50;;;;;;;2.10;0.97;;;;;;;16.99;100.00;155728.25;5103353;28;20852;-76
2022/09/10 08:47:25;;;;;;;1.40;0.97;;;;;;;17.16;100.00;155771.16;5075377;28;20454;-76
2022/09/10 08:49:56;;;;;;;1.43;0.83;;;;;;;17.29;100.00;155805.00;5109300;28;20585;-75
2022/09/10 08:52:28;;;;;;;1.83;1.00;;;;;;;17.31;100.00;155808.91;5089300;28;20513;-75
2022/09/10 08:55:02;;;;;;;1.10;0.63;;;;;;;17.53;100.00;155867.53;5095651;28;20507;-75
2022/09/10 08:57:33;;;;;;;2.80;1.03;;;;;;;17.62;100.00;155889.66;5085990;28;20436;-76
2022/09/10 09:00:01;;;;;;;1.80;0.87;;;;;;;17.71;99.84;155913.13;5105187;28;20823;-76
2022/09/10 09:02:45;;;;;;;2.57;0.80;;;;;;;17.83;98.68;155944.34;5075932;28;20436;-76
2022/09/10 09:05:17;;;;;;;1.60;0.90;;;;;;;17.89;98.95;155959.97;5110740;28;20534;-76
2022/09/10 09:07:47;;;;;;;1.80;0.97;;;;;;;17.97;97.93;155980.81;5093432;27;20439;-76
2022/09/10 09:10:20;;;;;;;1.07;0.77;;;;;;;18.04;97.87;155999.03;5110112;28;20827;-76
2022/09/10 09:12:56;;;;;;;1.87;0.93;;;;;;;18.13;94.81;156022.50;5075395;28;20444;-76
2022/09/10 09:15:27;;;;;;;2.50;0.80;;;;;;;18.20;94.78;156040.69;5079179;28;20456;-76
2022/09/10 09:18:03;;;;;;;2.50;0.87;;;;;;;18.25;93.17;156053.72;5063792;28;20453;-76
2022/09/10 09:20:41;;;;;;;2.07;1.03;;;;;;;18.13;89.96;156022.50;5074315;28;20444;-75
2022/09/10 09:23:19;;;;;;;3.30;0.80;;;;;;;18.08;89.58;156008.16;5083922;28;20439;-75
2022/09/10 09:25:49;;;;;;;2.17;1.07;;;;;;;18.00;89.72;155987.31;5088774;28;20872;-75
2022/09/10 09:28:23;;;;;;;2.70;1.20;;;;;;;17.97;89.56;155980.81;5059269;28;20451;-75
2022/09/10 09:30:51;;;;;;;1.70;1.10;;;;;;;17.93;88.33;155970.38;5068844;28;20964;-75
2022/09/10 09:33:21;;;;;;;2.00;0.90;;;;;;;17.92;86.13;155967.78;5074713;28;20441;-75
2022/09/10 09:35:51;;;;;;;2.20;0.93;;;;;;;17.97;91.61;155980.81;5077767;28;20440;-75
2022/09/10 09:38:22;;;;;;;2.67;1.50;;;;;;;18.04;88.48;155999.03;5077225;28;20439;-75
2022/09/10 09:40:55;;;;;;;1.37;0.97;;;;;;;18.14;86.32;156023.75;5074690;28;20787;-75
2022/09/10 09:43:34;;;;;;;2.30;1.07;;;;;;;18.17;87.01;156031.56;5093554;28;20433;-75
2022/09/10 09:46:01;;;;;;;2.40;1.17;;;;;;;18.29;86.91;156061.53;5070799;28;20494;-75
2022/09/10 09:48:37;;;;;;;1.40;0.80;;;;;;;18.27;86.66;156058.91;5051896;28;20423;-75
2022/09/10 09:51:04;;;;;;;1.23;0.80;;;;;;;18.24;89.37;156051.09;5034987;28;20798;-75
2022/09/10 09:53:31;;;;;;;1.63;0.80;;;;;;;18.15;86.53;156027.69;5062589;28;20438;-76
2022/09/10 09:56:01;;;;;;;1.73;0.90;;;;;;;18.16;85.29;156029.00;5067511;28;20462;-76
2022/09/10 09:58:30;;;;;;;3.30;0.77;;;;;;;18.19;87.22;156038.09;5047171;28;20863;-76
2022/09/10 10:01:18;;;;;;;2.33;1.10;;;;;;;18.24;85.23;156049.84;5072546;28;20442;-76
2022/09/10 10:03:50;;;;;;;2.10;0.90;;;;;;;18.27;85.04;156056.34;5052727;28;20438;-76
2022/09/10 10:06:18;;;;;;;1.37;1.10;;;;;;;18.27;84.15;156058.91;5051730;28;20489;-76
2022/09/10 10:08:46;;;;;;;3.10;0.93;;;;;;;18.32;86.06;156070.63;5051051;28;20518;-76
2022/09/10 10:11:18;;;;;;;1.83;0.90;;;;;;;18.38;84.40;156084.97;5076449;28;20956;-76
2022/09/10 10:13:46;;;;;;;1.57;0.80;;;;;;;18.38;85.48;156084.97;5082467;28;20450;-76
2022/09/10 10:16:15;;;;;;;3.07;1.00;;;;;;;18.42;87.19;156095.41;5071918;28;20929;-76
2022/09/10 10:18:42;;;;;;;2.23;0.90;;;;;;;18.43;85.65;156097.97;5070248;28;20781;-76
2022/09/10 10:21:15;;;;;;;1.70;0.70;;;;;;;18.43;82.96;156097.97;5064536;28;20443;-76
2022/09/10 10:23:42;;;;;;;2.27;1.00;;;;;;;18.49;81.75;156113.66;5085215;28;20449;-76
2022/09/10 10:26:23;;;;;;;2.70;1.10;;;;;;;18.59;83.89;156139.72;5091204;28;20445;-76
2022/09/10 10:28:51;;;;;;;2.90;1.40;;;;;;;18.57;85.95;156135.84;5091238;28;20443;-76
2022/09/10 10:31:18;;;;;;;2.10;0.90;;;;;;;18.68;83.23;156163.19;5069869;28;20620;-75
2022/09/10 10:33:50;;;;;;;3.63;1.00;;;;;;;18.70;82.54;156168.38;5072747;28;20423;-75
2022/09/10 10:36:22;;;;;;;2.00;1.17;;;;;;;18.66;81.35;156158.00;5063623;28;20462;-76
2022/09/10 10:38:55;;;;;;;1.90;1.10;;;;;;;18.67;82.40;156160.56;5052102;28;20455;-76
2022/09/10 10:41:46;;;;;;;2.30;0.70;;;;;;;18.77;86.55;156187.91;5086015;28;20435;-76
2022/09/10 10:44:27;;;;;;;2.37;0.97;;;;;;;18.96;82.31;156234.81;5051843;28;20873;-76
2022/09/10 10:47:04;;;;;;;2.23;1.00;;;;;;;19.10;84.32;156272.63;5052085;28;20423;-76
2022/09/10 10:49:36;;;;;;;1.60;0.90;;;;;;;19.17;80.65;156289.53;5055388;28;20459;-76
2022/09/10 10:52:09;;;;;;;2.80;0.80;;;;;;;19.27;82.11;156315.66;5052864;28;20416;-76
2022/09/10 10:54:50;;;;;;;1.40;0.60;;;;;;;19.39;81.53;156348.28;5051264;28;20439;-76
2022/09/10 10:57:27;;;;;;;1.90;0.80;;;;;;;19.53;81.27;156382.16;5051732;28;20434;-76
2022/09/10 10:59:56;;;;;;;2.40;1.00;;;;;;;19.64;77.98;156412.16;5066585;28;20442;-77
2022/09/10 11:02:32;;;;;;;1.77;0.80;;;;;;;19.86;78.62;156468.19;5076460;28;20445;-75
2022/09/10 11:05:01;;;;;;;1.30;0.77;;;;;;;20.03;76.85;156512.53;5091838;28;20981;-75
2022/09/10 11:07:31;;;;;;;4.73;0.80;;;;;;;19.94;73.69;156489.06;5085866;28;20439;-75
2022/09/10 11:10:01;;;;;;;1.87;0.70;;;;;;;19.86;75.43;156468.19;5063513;28;20587;-75
2022/09/10 11:12:33;;;;;;;1.43;0.70;;;;;;;19.90;77.71;156479.97;5072227;28;20449;-75
2022/09/10 11:15:02;;;;;;;1.50;0.70;;;;;;;19.99;74.59;156502.09;5081780;28;20451;-75
2022/09/10 11:17:33;;;;;;;1.83;0.80;;;;;;;20.07;70.19;156521.69;5051766;28;20501;-75
2022/09/10 11:20:05;;;;;;;2.03;0.80;;;;;;;20.12;72.72;156536.00;5049851;28;20439;-75
2022/09/10 11:22:35;;;;;;;1.73;0.80;;;;;;;20.09;70.67;156528.22;5051401;28;20415;-76
2022/09/10 11:25:08;;;;;;;1.13;0.60;;;;;;;19.99;73.18;156502.09;5050145;28;20454;-75
2022/09/10 11:27:40;;;;;;;2.00;0.70;;;;;;;19.86;70.58;156468.19;5063531;28;20429;-76
2022/09/10 11:30:10;;;;;;;1.43;0.80;;;;;;;19.90;72.10;156479.97;5077696;28;20469;-76
2022/09/10 11:32:41;;;;;;;1.00;0.60;;;;;;;20.06;70.43;156520.38;5076161;28;20493;-76